createdAt,value
2023-05-10T00:02:04.170Z,12.07
2023-05-10T00:04:30.894Z,12.00
2023-05-10T00:06:57.558Z,12.38
2023-05-10T00:09:24.106Z,13.00
2023-05-10T00:11:50.766Z,13.18
2023-05-10T00:14:17.921Z,13.10
2023-05-10T00:16:44.537Z,13.18
2023-05-10T00:19:11.452Z,13.00
2023-05-10T00:21:37.986Z,13.77
2023-05-10T00:24:04.911Z,11.65
2023-05-10T00:26:31.469Z,11.32
2023-05-10T00:28:59.551Z,11.05
2023-05-10T00:31:26.456Z,10.65
2023-05-10T00:33:52.986Z,10.80
2023-05-10T00:36:19.522Z,10.68
2023-05-10T00:38:47.340Z,10.38
2023-05-10T00:41:14.000Z,11.13
2023-05-10T00:43:40.509Z,9.60
2023-05-10T00:46:07.498Z,13.07
2023-05-10T00:48:34.462Z,10.32
2023-05-10T00:51:02.628Z,11.05
2023-05-10T00:53:32.029Z,12.43
2023-05-10T00:55:58.724Z,15.38
2023-05-10T00:58:28.997Z,15.40
2023-05-10T01:00:57.213Z,14.35
2023-05-10T01:03:23.888Z,16.05
2023-05-10T01:05:50.917Z,19.35
2023-05-10T01:08:17.533Z,15.80
2023-05-10T01:10:44.771Z,15.45
2023-05-10T01:13:12.332Z,17.48
2023-05-10T01:15:39.991Z,18.05
2023-05-10T01:18:07.348Z,20.85
2023-05-10T01:20:43.074Z,21.02
2023-05-10T01:23:51.106Z,22.10
2023-05-10T01:26:26.268Z,23.00
2023-05-10T01:29:30.539Z,21.40
2023-05-10T01:32:02.607Z,23.25
2023-05-10T01:34:36.934Z,20.75
2023-05-10T01:37:14.609Z,23.85
2023-05-10T01:40:01.312Z,22.85
2023-05-10T01:42:36.938Z,21.70
2023-05-10T01:45:13.828Z,22.48
2023-05-10T01:47:44.425Z,23.08
2023-05-10T01:50:29.741Z,21.05
2023-05-10T01:55:28.564Z,21.90
2023-05-10T01:58:11.141Z,23.15
2023-05-10T02:00:41.212Z,24.08
2023-05-10T02:03:09.816Z,25.50
2023-05-10T02:05:37.721Z,24.98
2023-05-10T02:08:07.926Z,25.50
2023-05-10T02:10:36.488Z,24.58
2023-05-10T02:13:04.588Z,24.35
2023-05-10T02:15:32.261Z,25.65
2023-05-10T02:18:01.071Z,25.15
2023-05-10T02:20:28.274Z,24.75
2023-05-10T02:22:57.130Z,26.55
2023-05-10T02:25:25.190Z,26.38
2023-05-10T02:27:55.033Z,25.20
2023-05-10T02:30:23.939Z,25.17
2023-05-10T02:32:51.621Z,26.38
2023-05-10T02:35:18.581Z,23.40
2023-05-10T02:37:46.564Z,25.45
2023-05-10T02:40:14.279Z,25.88
2023-05-10T02:42:44.716Z,24.70
2023-05-10T02:45:19.376Z,24.88
2023-05-10T02:47:45.983Z,25.08
2023-05-10T02:50:12.694Z,25.13
2023-05-10T02:52:47.398Z,25.75
2023-05-10T02:55:17.292Z,26.42
2023-05-10T02:57:53.546Z,29.45
2023-05-10T03:00:20.358Z,27.02
2023-05-10T03:02:46.934Z,26.42
2023-05-10T03:05:13.532Z,26.30
2023-05-10T03:07:40.256Z,26.52
2023-05-10T03:10:07.473Z,28.42
2023-05-10T03:12:46.831Z,28.33
2023-05-10T03:15:47.070Z,29.20
2023-05-10T03:18:23.373Z,28.63
2023-05-10T03:20:55.592Z,29.42
2023-05-10T03:23:27.859Z,29.55
2023-05-10T03:25:54.909Z,30.90
2023-05-10T03:28:22.098Z,30.20
2023-05-10T03:30:49.500Z,28.80
2023-05-10T03:33:16.285Z,29.20
2023-05-10T03:35:43.116Z,28.70
2023-05-10T03:38:09.683Z,27.70
2023-05-10T03:40:36.278Z,29.50
2023-05-10T03:43:02.896Z,28.52
2023-05-10T03:45:29.703Z,27.50
2023-05-10T03:47:56.366Z,26.50
2023-05-10T03:50:23.132Z,26.10
2023-05-10T03:52:50.042Z,25.08
2023-05-10T03:55:17.283Z,24.00
2023-05-10T03:57:43.893Z,23.80
2023-05-10T04:00:11.089Z,24.50
2023-05-10T04:02:38.605Z,24.60
2023-05-10T04:05:05.696Z,22.20
2023-05-10T04:07:32.311Z,24.38
2023-05-10T04:09:58.924Z,24.05
2023-05-10T04:12:25.667Z,22.85
2023-05-10T04:14:52.187Z,22.83
2023-05-10T04:17:19.012Z,24.30
2023-05-10T04:19:45.684Z,22.48
2023-05-10T04:22:12.242Z,21.73
2023-05-10T04:24:38.755Z,22.65
2023-05-10T04:27:05.399Z,22.55
2023-05-10T04:29:32.092Z,22.67
2023-05-10T04:31:58.821Z,22.38
2023-05-10T04:34:26.538Z,23.13
2023-05-10T04:36:53.111Z,21.52
2023-05-10T04:39:20.068Z,22.73
2023-05-10T04:41:46.742Z,21.10
2023-05-10T04:44:13.314Z,20.45
2023-05-10T04:46:40.161Z,18.42
2023-05-10T04:49:06.798Z,17.73
2023-05-10T04:51:33.542Z,16.55
2023-05-10T04:54:06.153Z,16.65
2023-05-10T04:56:34.092Z,14.80
2023-05-10T04:59:00.731Z,14.55
2023-05-10T05:01:27.300Z,14.30
2023-05-10T05:03:54.294Z,13.45
2023-05-10T05:06:22.160Z,11.45
2023-05-10T05:08:50.515Z,11.00
2023-05-10T05:11:18.196Z,11.30
2023-05-10T05:13:44.846Z,12.77
2023-05-10T05:16:12.478Z,11.70
2023-05-10T05:18:39.395Z,9.85
2023-05-10T05:21:19.306Z,9.70
2023-05-10T05:23:46.374Z,9.77
2023-05-10T05:26:13.089Z,9.82
2023-05-10T05:28:39.700Z,8.73
2023-05-10T05:31:07.002Z,7.57
2023-05-10T05:33:33.558Z,8.13
2023-05-10T05:36:04.924Z,7.95
2023-05-10T05:38:31.649Z,8.60
2023-05-10T05:40:59.073Z,9.07
2023-05-10T05:43:25.789Z,9.52
2023-05-10T05:45:55.247Z,9.80
2023-05-10T05:48:22.058Z,10.07
2023-05-10T05:50:48.595Z,9.05
2023-05-10T05:53:15.450Z,10.18
2023-05-10T05:55:42.030Z,9.45
2023-05-10T05:58:08.527Z,9.32
2023-05-10T06:00:35.296Z,9.00
2023-05-10T06:03:01.969Z,10.27
2023-05-10T06:05:28.582Z,11.48
2023-05-10T06:07:55.098Z,9.05
2023-05-10T06:10:21.632Z,8.55
2023-05-10T06:12:48.248Z,9.10
2023-05-10T06:15:15.023Z,9.27
2023-05-10T06:17:41.772Z,8.15
2023-05-10T06:20:09.144Z,9.27
2023-05-10T06:22:35.753Z,8.55
2023-05-10T06:25:03.052Z,7.72
2023-05-10T06:27:29.658Z,8.40
2023-05-10T06:30:02.148Z,7.82
2023-05-10T06:32:32.378Z,8.55
2023-05-10T06:34:59.347Z,8.50
2023-05-10T06:37:25.883Z,8.93
2023-05-10T06:39:52.584Z,8.02
2023-05-10T06:42:19.194Z,8.73
2023-05-10T06:44:45.793Z,8.90
2023-05-10T06:47:12.329Z,9.52
2023-05-10T06:49:38.971Z,9.38
2023-05-10T06:52:05.536Z,9.40
2023-05-10T06:54:32.133Z,8.18
2023-05-10T06:56:58.856Z,8.82
2023-05-10T06:59:25.501Z,8.45
2023-05-10T07:01:52.189Z,8.30
2023-05-10T07:04:18.931Z,9.82
2023-05-10T07:06:47.263Z,8.35
2023-05-10T07:09:14.479Z,8.23
2023-05-10T07:11:41.236Z,8.90
2023-05-10T07:14:07.816Z,8.75
2023-05-10T07:16:34.439Z,8.18
2023-05-10T07:19:01.092Z,6.72
2023-05-10T07:21:29.705Z,6.90
2023-05-10T07:23:56.452Z,6.57
2023-05-10T07:26:23.022Z,6.72
2023-05-10T07:28:49.503Z,6.63
2023-05-10T07:31:16.092Z,6.55
2023-05-10T07:33:42.711Z,6.50
2023-05-10T07:36:09.361Z,5.63
2023-05-10T07:38:35.939Z,6.07
2023-05-10T07:41:02.486Z,5.47
2023-05-10T07:43:29.069Z,5.53
2023-05-10T07:45:56.404Z,5.03
2023-05-10T07:48:23.055Z,5.13
2023-05-10T07:50:49.616Z,5.43
2023-05-10T07:53:16.160Z,5.03
2023-05-10T07:55:42.731Z,5.20
2023-05-10T07:58:09.264Z,5.82
2023-05-10T08:00:35.936Z,5.88
2023-05-10T08:03:02.626Z,5.05
2023-05-10T08:05:29.207Z,4.38
2023-05-10T08:07:55.860Z,4.47
2023-05-10T08:10:22.376Z,4.22
2023-05-10T08:12:48.934Z,4.80
2023-05-10T08:15:15.745Z,5.00
2023-05-10T08:17:42.625Z,6.07
2023-05-10T08:20:09.656Z,4.93
2023-05-10T08:22:36.205Z,5.05
2023-05-10T08:25:02.774Z,5.55
2023-05-10T08:27:29.284Z,6.13
2023-05-10T08:29:55.855Z,5.50
2023-05-10T08:32:22.456Z,6.10
2023-05-10T08:34:49.067Z,5.95
2023-05-10T08:37:15.718Z,6.13
2023-05-10T08:39:42.351Z,5.82
2023-05-10T08:42:10.798Z,5.93
2023-05-10T08:44:37.996Z,6.28
2023-05-10T08:47:08.531Z,6.53
2023-05-10T08:49:35.823Z,6.97
2023-05-10T08:52:08.363Z,5.85
2023-05-10T08:54:35.415Z,6.05
2023-05-10T08:57:02.505Z,5.50
2023-05-10T08:59:29.641Z,6.00
2023-05-10T09:01:59.003Z,4.78
2023-05-10T09:04:26.264Z,4.15
2023-05-10T09:06:53.093Z,5.53
2023-05-10T09:09:21.466Z,6.35
2023-05-10T09:11:48.637Z,6.00
2023-05-10T09:14:16.515Z,6.65
2023-05-10T09:16:43.600Z,7.43
2023-05-10T09:19:10.442Z,6.28
2023-05-10T09:21:39.273Z,7.13
2023-05-10T09:24:09.482Z,5.70
2023-05-10T09:26:46.450Z,6.55
2023-05-10T09:29:14.163Z,5.93
2023-05-10T09:31:48.774Z,5.18
2023-05-10T09:34:29.926Z,5.93
2023-05-10T09:36:59.012Z,5.80
2023-05-10T09:39:36.959Z,5.75
2023-05-10T09:42:06.367Z,5.75
2023-05-10T09:44:34.105Z,6.85
2023-05-10T09:47:04.363Z,8.15
2023-05-10T09:49:31.420Z,6.75
2023-05-10T09:52:06.566Z,6.38
2023-05-10T09:54:34.631Z,7.53
2023-05-10T09:57:01.736Z,6.97
2023-05-10T09:59:29.779Z,7.82
2023-05-10T10:02:01.167Z,7.70
2023-05-10T10:04:28.475Z,7.95
2023-05-10T10:07:05.630Z,8.60
2023-05-10T10:09:33.266Z,7.03
2023-05-10T10:12:03.883Z,7.75
2023-05-10T10:14:30.794Z,8.23
2023-05-10T10:17:07.655Z,8.23
2023-05-10T10:19:36.959Z,7.22
2023-05-10T10:22:03.937Z,6.68
2023-05-10T10:24:30.883Z,6.70
2023-05-10T10:27:06.642Z,7.22
2023-05-10T10:29:42.273Z,6.60
2023-05-10T10:32:50.545Z,6.65
2023-05-10T10:35:17.654Z,5.75
2023-05-10T10:37:49.016Z,5.40
2023-05-10T10:40:27.941Z,4.35
2023-05-10T10:42:55.841Z,4.70
2023-05-10T10:45:23.372Z,4.95
2023-05-10T10:47:51.016Z,4.03
2023-05-10T10:50:17.802Z,4.00
2023-05-10T10:52:45.245Z,3.72
2023-05-10T10:55:14.860Z,4.28
2023-05-10T10:57:41.456Z,4.18
2023-05-10T11:00:24.727Z,4.38
2023-05-10T11:03:22.087Z,3.97
2023-05-10T11:05:49.812Z,3.85
2023-05-10T11:08:30.873Z,4.03
2023-05-10T11:11:00.522Z,4.43
2023-05-10T11:13:40.434Z,4.25
2023-05-10T11:16:26.397Z,4.05
2023-05-10T11:18:55.242Z,3.33
2023-05-10T11:21:22.116Z,3.67
2023-05-10T11:23:49.747Z,3.78
2023-05-10T11:26:16.376Z,3.72
2023-05-10T11:28:46.166Z,3.38
2023-05-10T11:31:17.296Z,3.10
2023-05-10T11:33:49.059Z,2.80
2023-05-10T11:36:17.760Z,2.88
2023-05-10T11:38:45.005Z,2.60
2023-05-10T11:41:13.262Z,4.25
2023-05-10T11:43:40.954Z,3.53
2023-05-10T11:46:09.205Z,3.67
2023-05-10T11:48:35.828Z,2.97
2023-05-10T11:51:03.191Z,2.70
2023-05-10T11:53:33.450Z,3.55
2023-05-10T11:56:11.180Z,3.47
2023-05-10T11:58:39.128Z,3.80
2023-05-10T12:01:07.673Z,3.80
2023-05-10T12:03:35.308Z,3.97
2023-05-10T12:06:03.090Z,3.88
2023-05-10T12:08:31.054Z,3.70
2023-05-10T12:11:08.665Z,5.60
2023-05-10T12:13:42.731Z,5.50
2023-05-10T12:16:22.483Z,5.17
2023-05-10T12:18:53.428Z,7.05
2023-05-10T12:21:21.863Z,6.25
2023-05-10T12:23:51.258Z,5.68
2023-05-10T12:26:18.227Z,6.38
2023-05-10T12:28:45.381Z,6.93
2023-05-10T12:31:12.025Z,6.75
2023-05-10T12:33:43.536Z,7.38
2023-05-10T12:36:17.301Z,5.32
2023-05-10T12:38:48.606Z,5.07
2023-05-10T12:41:18.164Z,4.78
2023-05-10T12:43:46.359Z,5.13
2023-05-10T12:46:15.413Z,4.15
2023-05-10T12:48:43.924Z,3.75
2023-05-10T12:51:12.725Z,3.83
2023-05-10T12:53:42.751Z,5.15
2023-05-10T12:56:10.934Z,3.72
2023-05-10T12:58:37.557Z,3.10
2023-05-10T13:01:05.223Z,2.03
2023-05-10T13:03:31.806Z,2.25
2023-05-10T13:05:58.510Z,2.45
2023-05-10T13:08:25.229Z,1.83
2023-05-10T13:10:51.811Z,2.00
2023-05-10T13:13:19.264Z,1.55
2023-05-10T13:15:45.970Z,2.10
2023-05-10T13:18:12.642Z,2.03
2023-05-10T13:20:39.436Z,1.98
2023-05-10T13:23:06.070Z,2.75
2023-05-10T13:25:32.708Z,2.45
2023-05-10T13:27:59.244Z,2.60
2023-05-10T13:30:26.149Z,3.20
2023-05-10T13:32:52.815Z,3.08
2023-05-10T13:35:19.474Z,4.70
2023-05-10T13:37:46.059Z,5.00
2023-05-10T13:40:12.897Z,5.40
2023-05-10T13:42:39.524Z,5.45
2023-05-10T13:45:06.875Z,5.72
2023-05-10T13:47:33.465Z,5.45
2023-05-10T13:50:00.053Z,4.10
2023-05-10T13:52:27.386Z,3.67
2023-05-10T13:54:55.960Z,3.90
2023-05-10T13:57:23.102Z,3.80
2023-05-10T13:59:49.976Z,3.50
2023-05-10T14:02:16.661Z,3.03
2023-05-10T14:04:46.533Z,3.70
2023-05-10T14:07:13.064Z,3.95
2023-05-10T14:09:39.577Z,4.07
2023-05-10T14:12:06.159Z,3.85
2023-05-10T14:14:32.756Z,4.03
2023-05-10T14:17:00.319Z,4.50
2023-05-10T14:19:28.136Z,4.30
2023-05-10T14:21:54.728Z,4.30
2023-05-10T14:24:21.303Z,3.80
2023-05-10T14:26:47.880Z,3.80
2023-05-10T14:29:14.380Z,4.80
2023-05-10T14:31:41.561Z,4.80
2023-05-10T14:34:08.158Z,3.78
2023-05-10T14:36:34.716Z,4.82
2023-05-10T14:39:01.302Z,3.97
2023-05-10T14:41:27.984Z,3.47
2023-05-10T14:43:54.524Z,3.30
2023-05-10T14:46:21.179Z,3.33
2023-05-10T14:48:47.772Z,3.55
2023-05-10T14:51:14.532Z,3.65
2023-05-10T14:53:41.175Z,4.70
2023-05-10T14:56:08.142Z,5.20
2023-05-10T14:58:34.794Z,6.60
2023-05-10T15:01:01.961Z,6.15
2023-05-10T15:03:29.266Z,6.32
2023-05-10T15:05:58.596Z,6.90
2023-05-10T15:08:28.842Z,6.78
2023-05-10T15:10:56.891Z,8.38
2023-05-10T15:13:23.530Z,6.85
2023-05-10T15:15:50.193Z,8.02
2023-05-10T15:18:16.832Z,7.43
2023-05-10T15:20:43.364Z,7.25
2023-05-10T15:23:10.035Z,7.80
2023-05-10T15:25:38.219Z,7.32
2023-05-10T15:28:05.533Z,6.63
2023-05-10T15:30:32.197Z,7.10
2023-05-10T15:32:59.017Z,7.10
2023-05-10T15:35:26.961Z,6.45
2023-05-10T15:37:53.528Z,6.05
2023-05-10T15:40:20.450Z,5.43
2023-05-10T15:42:46.995Z,5.20
2023-05-10T15:45:14.119Z,5.30
2023-05-10T15:47:40.948Z,5.85
2023-05-10T15:50:08.459Z,6.03
2023-05-10T15:52:35.258Z,4.60
2023-05-10T15:55:01.927Z,5.55
2023-05-10T15:57:28.569Z,5.07
2023-05-10T15:59:56.352Z,4.97
2023-05-10T16:02:23.547Z,3.97
2023-05-10T16:04:50.372Z,4.72
2023-05-10T16:07:16.924Z,5.88
2023-05-10T16:09:44.050Z,4.13
2023-05-10T16:12:10.901Z,4.13
2023-05-10T16:14:37.670Z,4.90
2023-05-10T16:17:04.762Z,4.35
2023-05-10T16:19:32.087Z,3.95
2023-05-10T16:21:58.869Z,3.95
2023-05-10T16:24:26.523Z,3.33
2023-05-10T16:26:53.157Z,3.47
2023-05-10T16:29:27.005Z,2.75
2023-05-10T16:31:53.954Z,3.28
2023-05-10T16:34:24.197Z,2.80
2023-05-10T16:36:51.608Z,2.28
2023-05-10T16:39:18.189Z,2.28
2023-05-10T16:41:45.169Z,2.22
2023-05-10T16:44:11.705Z,1.90
2023-05-10T16:46:38.336Z,1.50
2023-05-10T16:49:04.924Z,1.58
2023-05-10T16:51:31.526Z,1.35
2023-05-10T16:53:58.305Z,1.40
2023-05-10T16:56:24.908Z,1.33
2023-05-10T16:58:51.659Z,1.40
2023-05-10T17:01:18.863Z,1.25
2023-05-10T17:03:45.635Z,1.13
2023-05-10T17:06:12.253Z,1.60
2023-05-10T17:08:38.789Z,0.73
2023-05-10T17:11:05.476Z,1.80
2023-05-10T17:13:32.187Z,1.30
2023-05-10T17:15:58.890Z,1.33
2023-05-10T17:18:26.763Z,1.20
2023-05-10T17:20:53.457Z,1.70
2023-05-10T17:23:20.087Z,1.20
2023-05-10T17:25:46.656Z,1.20
2023-05-10T17:28:13.252Z,1.80
2023-05-10T17:30:39.864Z,1.40
2023-05-10T17:33:06.412Z,1.70
2023-05-10T17:35:32.916Z,1.27
2023-05-10T17:37:59.435Z,1.27
2023-05-10T17:40:26.036Z,1.63
2023-05-10T17:42:52.669Z,1.20
2023-05-10T17:45:20.053Z,1.33
2023-05-10T17:47:46.790Z,1.17
2023-05-10T17:50:13.408Z,1.17
2023-05-10T17:52:40.019Z,2.45
2023-05-10T17:55:07.151Z,1.00
2023-05-10T17:57:33.889Z,1.77
2023-05-10T18:00:02.280Z,2.38
2023-05-10T18:02:28.972Z,1.73
2023-05-10T18:04:57.560Z,2.05
2023-05-10T18:07:27.104Z,2.35
2023-05-10T18:09:53.677Z,2.38
2023-05-10T18:12:20.225Z,2.55
2023-05-10T18:14:46.817Z,2.15
2023-05-10T18:17:13.379Z,1.83
2023-05-10T18:19:40.225Z,2.30
2023-05-10T18:22:09.699Z,1.83
2023-05-10T18:24:38.890Z,1.83
2023-05-10T18:27:08.753Z,2.10
2023-05-10T18:29:36.259Z,2.25
2023-05-10T18:32:05.725Z,1.90
2023-05-10T18:34:32.303Z,1.42
2023-05-10T18:36:59.487Z,2.05
2023-05-10T18:39:26.017Z,1.50
2023-05-10T18:41:52.640Z,1.48
2023-05-10T18:44:19.296Z,1.58
2023-05-10T18:46:46.469Z,1.63
2023-05-10T18:49:13.188Z,1.20
2023-05-10T18:51:39.734Z,1.40
2023-05-10T18:54:06.408Z,1.70
2023-05-10T18:56:33.635Z,1.50
2023-05-10T18:59:00.409Z,1.98
2023-05-10T19:01:26.967Z,2.63
2023-05-10T19:03:53.516Z,2.70
2023-05-10T19:06:20.153Z,4.00
2023-05-10T19:08:46.713Z,2.72
2023-05-10T19:11:13.262Z,4.57
2023-05-10T19:13:39.846Z,4.05
2023-05-10T19:16:14.098Z,3.83
2023-05-10T19:18:41.084Z,4.65
2023-05-10T19:21:08.950Z,3.97
2023-05-10T19:23:35.537Z,4.47
2023-05-10T19:26:02.188Z,4.18
2023-05-10T19:28:28.768Z,4.40
2023-05-10T19:30:55.339Z,4.18
2023-05-10T19:33:22.008Z,4.35
2023-05-10T19:35:52.188Z,4.00
2023-05-10T19:38:23.047Z,3.60
2023-05-10T19:40:58.097Z,4.10
2023-05-10T19:43:31.239Z,4.47
2023-05-10T19:46:00.631Z,4.25
2023-05-10T19:48:27.543Z,4.32
2023-05-10T19:50:59.208Z,4.45
2023-05-10T19:53:25.767Z,4.82
2023-05-10T19:55:52.306Z,5.13
2023-05-10T19:58:18.775Z,4.35
2023-05-10T20:00:45.550Z,3.83
2023-05-10T20:03:12.175Z,3.63
2023-05-10T20:05:38.765Z,3.60
2023-05-10T20:08:05.314Z,4.53
2023-05-10T20:10:31.837Z,3.67
2023-05-10T20:12:59.133Z,3.28
2023-05-10T20:15:25.700Z,3.80
2023-05-10T20:17:53.292Z,3.30
2023-05-10T20:20:20.620Z,3.63
2023-05-10T20:22:48.573Z,3.40
2023-05-10T20:25:16.222Z,3.60
2023-05-10T20:27:43.264Z,3.40
2023-05-10T20:30:10.495Z,4.40
2023-05-10T20:32:37.887Z,4.82
2023-05-10T20:35:05.414Z,4.68
2023-05-10T20:37:32.076Z,4.50
2023-05-10T20:39:58.763Z,5.35
2023-05-10T20:42:25.410Z,5.80
2023-05-10T20:44:52.030Z,4.85
2023-05-10T20:47:18.708Z,5.28
2023-05-10T20:49:45.525Z,6.28
2023-05-10T20:52:12.196Z,6.32
2023-05-10T20:54:38.759Z,6.28
2023-05-10T20:57:05.546Z,6.32
2023-05-10T20:59:32.106Z,6.75
2023-05-10T21:01:58.770Z,5.85
2023-05-10T21:04:25.893Z,5.72
2023-05-10T21:06:53.085Z,6.78
2023-05-10T21:09:19.844Z,5.25
2023-05-10T21:11:46.646Z,6.22
2023-05-10T21:14:13.221Z,6.72
2023-05-10T21:16:39.986Z,7.50
2023-05-10T21:19:07.499Z,8.75
2023-05-10T21:21:34.565Z,8.40
2023-05-10T21:24:01.354Z,8.32
2023-05-10T21:26:28.708Z,8.85
2023-05-10T21:28:59.542Z,8.80
2023-05-10T21:34:14.187Z,9.10
2023-05-10T21:36:41.015Z,8.90
2023-05-10T21:40:00.027Z,8.25
2023-05-10T21:45:39.126Z,7.93
2023-05-10T21:52:17.645Z,9.38
2023-05-10T21:54:51.639Z,9.85
2023-05-10T21:57:29.144Z,8.93
2023-05-10T21:59:55.968Z,9.27
2023-05-10T22:02:29.565Z,9.63
2023-05-10T22:05:59.058Z,9.00
2023-05-10T22:12:13.072Z,8.85
2023-05-10T22:14:39.714Z,8.95
2023-05-10T22:17:09.208Z,8.38
2023-05-10T22:19:40.108Z,7.90
2023-05-10T22:22:08.760Z,8.68
2023-05-10T22:24:35.454Z,9.07
2023-05-10T22:27:08.143Z,7.50
2023-05-10T22:29:48.057Z,6.60
2023-05-10T22:32:14.692Z,7.10
2023-05-10T22:34:43.258Z,7.55
2023-05-10T22:37:09.946Z,7.07
2023-05-10T22:39:36.600Z,7.15
2023-05-10T22:42:03.374Z,7.57
2023-05-10T22:44:30.055Z,6.82
2023-05-10T22:46:59.845Z,6.38
2023-05-10T22:49:26.453Z,6.25
2023-05-10T22:51:53.054Z,6.75
2023-05-10T22:54:22.743Z,6.45
2023-05-10T22:56:52.296Z,7.32
2023-05-10T22:59:19.526Z,7.32
2023-05-10T23:01:48.235Z,8.25
2023-05-10T23:04:15.822Z,7.00
2023-05-10T23:06:42.391Z,7.63
2023-05-10T23:09:09.858Z,7.45
2023-05-10T23:11:36.561Z,6.03
2023-05-10T23:14:03.423Z,5.32
2023-05-10T23:16:33.071Z,4.32
2023-05-10T23:18:59.889Z,5.93
2023-05-10T23:21:26.662Z,5.50
2023-05-10T23:23:55.892Z,6.25
2023-05-10T23:26:22.657Z,6.35
2023-05-10T23:28:49.353Z,6.13
2023-05-10T23:31:16.570Z,5.93
2023-05-10T23:33:49.044Z,4.53
2023-05-10T23:36:15.653Z,4.68
2023-05-10T23:38:42.260Z,4.68
2023-05-10T23:41:08.782Z,5.10
2023-05-10T23:43:35.379Z,3.90
2023-05-10T23:46:02.161Z,3.88
2023-05-10T23:48:28.796Z,4.10
2023-05-10T23:50:55.580Z,3.90
2023-05-10T23:53:22.344Z,3.65
2023-05-10T23:55:49.073Z,3.65
2023-05-10T23:58:15.777Z,3.25
